createdAt,value
2022-12-12T00:01:21.666Z,100533.69
2022-12-12T00:04:11.023Z,100523.22
2022-12-12T00:07:01.965Z,100533.22
2022-12-12T00:09:51.307Z,100539.16
2022-12-12T00:12:41.031Z,100534.81
2022-12-12T00:15:30.508Z,100540.56
2022-12-12T00:18:19.995Z,100542.44
2022-12-12T00:21:15.589Z,100542.19
2022-12-12T00:24:07.671Z,100531.66
2022-12-12T00:26:56.966Z,100553.81
2022-12-12T00:29:46.261Z,100540.88
2022-12-12T00:32:35.791Z,100550.31
2022-12-12T00:35:25.270Z,100538.66
2022-12-12T00:38:14.540Z,100544.38
2022-12-12T00:41:07.561Z,100522.97
2022-12-12T00:43:57.172Z,100521.94
2022-12-12T00:46:46.744Z,100530.09
2022-12-12T00:49:36.251Z,100530.38
2022-12-12T00:52:25.524Z,100523.69
2022-12-12T00:55:15.093Z,100523.38
2022-12-12T00:58:05.990Z,100526.88
2022-12-12T01:00:55.741Z,100519.31
2022-12-12T01:03:45.584Z,100522.56
2022-12-12T01:06:35.094Z,100525.50
2022-12-12T01:09:24.376Z,100523.91
2022-12-12T01:12:13.653Z,100521.47
2022-12-12T01:15:05.558Z,100511.72
2022-12-12T01:17:55.316Z,100514.47
2022-12-12T01:20:45.419Z,100519.00
2022-12-12T01:23:35.186Z,100518.16
2022-12-12T01:26:26.121Z,100507.88
2022-12-12T01:29:15.386Z,100512.72
2022-12-12T01:32:06.847Z,100510.91
2022-12-12T01:34:56.128Z,100516.03
2022-12-12T01:37:45.575Z,100507.88
2022-12-12T01:40:34.941Z,100505.44
2022-12-12T01:43:26.783Z,100508.47
2022-12-12T01:46:42.328Z,100511.16
2022-12-12T01:49:34.582Z,100503.28
2022-12-12T01:52:29.521Z,100501.41
2022-12-12T01:55:24.351Z,100503.78
2022-12-12T01:58:14.237Z,100495.34
2022-12-12T02:01:03.741Z,100493.66
2022-12-12T02:03:53.675Z,100500.25
2022-12-12T02:06:45.422Z,100478.91
2022-12-12T02:09:37.266Z,100489.94
2022-12-12T02:12:26.509Z,100499.34
2022-12-12T02:15:16.255Z,100488.28
2022-12-12T02:18:12.888Z,100499.38
2022-12-12T02:21:15.585Z,100502.06
2022-12-12T02:24:54.742Z,100492.63
2022-12-12T02:28:32.151Z,100505.31
2022-12-12T02:31:28.264Z,100509.38
2022-12-12T02:34:26.750Z,100510.50
2022-12-12T02:37:26.032Z,100494.25
2022-12-12T02:40:23.911Z,100511.31
2022-12-12T02:43:20.249Z,100502.97
2022-12-12T02:46:19.070Z,100499.72
2022-12-12T02:49:16.195Z,100512.34
2022-12-12T02:52:06.543Z,100509.91
2022-12-12T02:54:55.949Z,100493.44
2022-12-12T02:57:45.546Z,100500.66
2022-12-12T03:00:43.444Z,100503.06
2022-12-12T03:03:59.967Z,100495.13
2022-12-12T03:07:26.536Z,100497.03
2022-12-12T03:10:30.968Z,100492.34
2022-12-12T03:13:33.467Z,100484.81
2022-12-12T03:16:29.832Z,100485.03
2022-12-12T03:19:27.248Z,100482.38
2022-12-12T03:22:27.180Z,100492.16
2022-12-12T03:25:22.853Z,100477.88
2022-12-12T03:28:17.852Z,100485.16
2022-12-12T03:31:12.285Z,100455.38
2022-12-12T03:34:07.175Z,100473.25
2022-12-12T03:37:02.487Z,100473.03
2022-12-12T03:40:00.433Z,100466.78
2022-12-12T03:42:55.363Z,100464.75
2022-12-12T03:45:56.903Z,100455.53
2022-12-12T03:48:50.217Z,100458.19
2022-12-12T03:51:45.018Z,100468.66
2022-12-12T03:54:39.130Z,100467.84
2022-12-12T03:57:36.031Z,100450.28
2022-12-12T04:00:25.731Z,100462.19
2022-12-12T04:03:24.598Z,100466.84
2022-12-12T04:06:28.775Z,100467.13
2022-12-12T04:09:38.813Z,100460.13
2022-12-12T04:12:56.612Z,100454.66
2022-12-12T04:15:58.563Z,100459.31
2022-12-12T04:18:55.425Z,100456.31
2022-12-12T04:22:08.540Z,100451.78
2022-12-12T04:25:05.444Z,100454.31
2022-12-12T04:28:02.913Z,100461.34
2022-12-12T04:30:52.676Z,100462.19
2022-12-12T04:33:49.732Z,100456.78
2022-12-12T04:36:40.289Z,100457.88
2022-12-12T04:39:30.715Z,100452.50
2022-12-12T04:42:26.346Z,100453.03
2022-12-12T04:45:22.168Z,100452.41
2022-12-12T04:48:19.121Z,100449.41
2022-12-12T04:51:11.740Z,100431.06
2022-12-12T04:54:08.145Z,100442.72
2022-12-12T04:57:03.323Z,100436.47
2022-12-12T04:59:53.331Z,100424.63
2022-12-12T05:02:51.133Z,100434.13
2022-12-12T05:05:45.964Z,100434.16
2022-12-12T05:08:39.548Z,100428.22
2022-12-12T05:11:29.473Z,100434.16
2022-12-12T05:14:19.523Z,100424.97
2022-12-12T05:17:15.664Z,100426.03
2022-12-12T05:20:07.586Z,100417.34
2022-12-12T05:22:57.229Z,100424.69
2022-12-12T05:25:46.814Z,100427.25
2022-12-12T05:28:36.264Z,100416.25
2022-12-12T05:31:26.793Z,100421.56
2022-12-12T05:34:16.124Z,100423.72
2022-12-12T05:37:06.907Z,100423.19
2022-12-12T05:39:56.193Z,100431.28
2022-12-12T05:42:45.747Z,100414.25
2022-12-12T05:45:34.994Z,100423.25
2022-12-12T05:48:24.809Z,100412.78
2022-12-12T05:51:14.067Z,100412.50
2022-12-12T05:54:04.789Z,100410.41
2022-12-12T05:56:54.127Z,100409.28
2022-12-12T05:59:43.421Z,100414.59
2022-12-12T06:02:32.829Z,100403.03
2022-12-12T06:05:22.697Z,100416.41
2022-12-12T06:08:12.102Z,100405.13
2022-12-12T06:11:05.449Z,100405.38
2022-12-12T06:13:54.765Z,100414.25
2022-12-12T06:16:44.167Z,100410.25
2022-12-12T06:19:34.583Z,100403.03
2022-12-12T06:22:23.971Z,100399.78
2022-12-12T06:25:14.475Z,100396.81
2022-12-12T06:28:05.878Z,100384.97
2022-12-12T06:30:56.261Z,100393.31
2022-12-12T06:33:46.402Z,100384.16
2022-12-12T06:36:35.694Z,100384.44
2022-12-12T06:39:24.973Z,100389.28
2022-12-12T06:42:14.297Z,100389.00
2022-12-12T06:45:06.671Z,100391.97
2022-12-12T06:47:56.211Z,100392.50
2022-12-12T06:50:46.743Z,100383.34
2022-12-12T06:53:36.183Z,100386.88
2022-12-12T06:56:27.982Z,100387.13
2022-12-12T06:59:18.168Z,100380.31
2022-12-12T07:02:10.473Z,100386.56
2022-12-12T07:05:00.037Z,100367.06
2022-12-12T07:07:49.495Z,100378.44
2022-12-12T07:10:38.882Z,100388.72
2022-12-12T07:13:28.219Z,100375.19
2022-12-12T07:16:18.628Z,100384.16
2022-12-12T07:19:10.866Z,100376.34
2022-12-12T07:22:05.792Z,100372.25
2022-12-12T07:24:58.611Z,100377.38
2022-12-12T07:27:47.969Z,100379.84
2022-12-12T07:30:40.753Z,100381.94
2022-12-12T07:33:41.067Z,100386.28
2022-12-12T07:36:33.736Z,100384.88
2022-12-12T07:39:23.048Z,100390.25
2022-12-12T07:42:12.396Z,100389.78
2022-12-12T07:45:01.671Z,100390.34
2022-12-12T07:47:52.345Z,100397.34
2022-12-12T07:50:42.852Z,100392.50
2022-12-12T07:53:34.046Z,100402.44
2022-12-12T07:56:23.660Z,100401.38
2022-12-12T07:59:13.041Z,100402.47
2022-12-12T08:02:02.397Z,100401.91
2022-12-12T08:04:51.803Z,100394.09
2022-12-12T08:07:41.437Z,100396.00
2022-12-12T08:10:32.377Z,100401.47
2022-12-12T08:13:21.892Z,100402.81
2022-12-12T08:16:16.217Z,100392.25
2022-12-12T08:19:05.883Z,100400.69
2022-12-12T08:21:55.201Z,100407.38
2022-12-12T08:24:44.755Z,100399.84
2022-12-12T08:27:35.693Z,100402.81
2022-12-12T08:30:24.960Z,100402.81
2022-12-12T08:33:14.225Z,100405.00
2022-12-12T08:36:14.732Z,100390.41
2022-12-12T08:39:08.200Z,100396.94
2022-12-12T08:41:57.519Z,100395.31
2022-12-12T08:44:50.062Z,100393.94
2022-12-12T08:47:39.500Z,100395.25
2022-12-12T08:50:28.819Z,100395.25
2022-12-12T08:53:18.367Z,100397.75
2022-12-12T08:56:08.943Z,100390.41
2022-12-12T08:58:58.281Z,100393.16
2022-12-12T09:01:49.311Z,100396.16
2022-12-12T09:04:40.456Z,100390.50
2022-12-12T09:07:29.819Z,100380.78
2022-12-12T09:10:19.513Z,100400.00
2022-12-12T09:13:09.160Z,100392.50
2022-12-12T09:15:58.680Z,100401.06
2022-12-12T09:18:49.711Z,100396.69
2022-12-12T09:21:39.119Z,100410.53
2022-12-12T09:24:28.752Z,100398.41
2022-12-12T09:27:18.153Z,100404.63
2022-12-12T09:30:08.917Z,100404.06
2022-12-12T09:32:58.291Z,100409.47
2022-12-12T09:35:57.571Z,100401.97
2022-12-12T09:38:47.044Z,100398.22
2022-12-12T09:41:36.299Z,100387.44
2022-12-12T09:44:27.402Z,100391.53
2022-12-12T09:47:33.314Z,100394.81
2022-12-12T09:50:29.644Z,100390.22
2022-12-12T09:53:23.024Z,100394.28
2022-12-12T09:56:19.971Z,100398.06
2022-12-12T09:59:17.077Z,100391.38
2022-12-12T10:02:31.396Z,100390.78
2022-12-12T10:05:35.730Z,100386.47
2022-12-12T10:08:39.040Z,100383.19
2022-12-12T10:11:48.892Z,100382.06
2022-12-12T10:14:44.150Z,100393.44
2022-12-12T10:17:39.274Z,100386.72
2022-12-12T10:20:32.157Z,100384.53
2022-12-12T10:23:33.749Z,100399.16
2022-12-12T10:26:26.716Z,100387.00
2022-12-12T10:29:21.644Z,100396.22
2022-12-12T10:32:23.184Z,100403.47
2022-12-12T10:35:26.757Z,100395.69
2022-12-12T10:38:33.317Z,100407.00
2022-12-12T10:41:37.599Z,100393.97
2022-12-12T10:44:53.147Z,100390.22
2022-12-12T10:47:42.631Z,100380.81
2022-12-12T10:50:37.387Z,100401.66
2022-12-12T10:53:27.136Z,100396.53
2022-12-12T10:56:25.312Z,100393.31
2022-12-12T10:59:24.103Z,100395.47
2022-12-12T11:02:38.187Z,100398.16
2022-12-12T11:05:35.846Z,100399.81
2022-12-12T11:08:30.640Z,100384.47
2022-12-12T11:11:24.181Z,100378.25
2022-12-12T11:14:29.169Z,100385.59
2022-12-12T11:17:25.901Z,100373.19
2022-12-12T11:20:20.336Z,100375.91
2022-12-12T11:23:20.110Z,100378.63
2022-12-12T11:26:17.042Z,100369.47
2022-12-12T11:29:08.163Z,100363.81
2022-12-12T11:31:58.285Z,100372.22
2022-12-12T11:34:52.705Z,100366.81
2022-12-12T11:37:53.707Z,100356.59
2022-12-12T11:40:44.729Z,100367.69
2022-12-12T11:43:38.243Z,100360.13
2022-12-12T11:46:31.678Z,100361.47
2022-12-12T11:49:21.777Z,100345.84
2022-12-12T11:52:21.593Z,100335.06
2022-12-12T11:55:17.299Z,100344.78
2022-12-12T11:58:18.871Z,100329.66
2022-12-12T12:01:17.922Z,100328.31
2022-12-12T12:04:40.292Z,100328.06
2022-12-12T12:07:56.617Z,100323.22
2022-12-12T12:11:03.211Z,100307.00
2022-12-12T12:14:21.348Z,100314.84
2022-12-12T12:17:24.136Z,100322.16
2022-12-12T12:20:25.912Z,100320.50
2022-12-12T12:23:27.801Z,100310.00
2022-12-12T12:26:25.299Z,100317.03
2022-12-12T12:29:57.183Z,100312.44
2022-12-12T12:33:18.169Z,100327.03
2022-12-12T12:36:21.477Z,100315.69
2022-12-12T12:39:29.973Z,100329.75
2022-12-12T12:42:34.542Z,100317.03
2022-12-12T12:45:38.204Z,100316.50
2022-12-12T12:48:35.117Z,100318.66
2022-12-12T12:51:32.868Z,100325.41
2022-12-12T12:54:26.455Z,100321.63
2022-12-12T12:57:22.855Z,100328.94
2022-12-12T13:00:19.836Z,100327.28
2022-12-12T13:03:18.902Z,100328.06
2022-12-12T13:06:19.797Z,100313.25
2022-12-12T13:09:31.455Z,100321.06
2022-12-12T13:12:30.293Z,100312.72
2022-12-12T13:15:27.011Z,100319.75
2022-12-12T13:18:18.695Z,100322.72
2022-12-12T13:21:17.672Z,100317.03
2022-12-12T13:24:18.480Z,100308.69
2022-12-12T13:27:18.463Z,100309.50
2022-12-12T13:30:21.490Z,100311.91
2022-12-12T13:33:33.138Z,100306.53
2022-12-12T13:36:30.029Z,100310.81
2022-12-12T13:39:31.845Z,100314.06
2022-12-12T13:42:21.130Z,100296.78
2022-12-12T13:45:38.917Z,100308.13
2022-12-12T13:48:48.840Z,100283.53
2022-12-12T13:51:40.873Z,100302.72
2022-12-12T13:55:16.128Z,100315.16
2022-12-12T13:58:19.830Z,100295.97
2022-12-12T14:01:34.556Z,100305.69
2022-12-12T14:04:30.333Z,100294.09
2022-12-12T14:07:25.613Z,100303.81
2022-12-12T14:10:28.402Z,100305.16
2022-12-12T14:13:43.196Z,100312.16
2022-12-12T14:16:32.585Z,100304.88
2022-12-12T14:19:36.171Z,100301.91
2022-12-12T14:22:30.070Z,100298.91
2022-12-12T14:25:30.769Z,100305.41
2022-12-12T14:28:26.689Z,100309.16
2022-12-12T14:31:18.129Z,100305.94
2022-12-12T14:34:28.600Z,100307.81
2022-12-12T14:37:49.869Z,100296.22
2022-12-12T14:40:48.539Z,100300.03
2022-12-12T14:43:43.888Z,100298.91
2022-12-12T14:46:33.269Z,100299.47
2022-12-12T14:49:23.096Z,100296.25
2022-12-12T14:52:22.502Z,100300.56
2022-12-12T14:55:17.207Z,100291.94
2022-12-12T14:58:07.916Z,100292.47
2022-12-12T15:01:00.963Z,100282.72
2022-12-12T15:03:52.439Z,100288.16
2022-12-12T15:06:43.327Z,100287.06
2022-12-12T15:09:35.317Z,100287.59
2022-12-12T15:12:28.243Z,100282.75
2022-12-12T15:15:27.758Z,100285.44
2022-12-12T15:18:21.577Z,100293.81
2022-12-12T15:21:11.033Z,100296.78
2022-12-12T15:24:01.173Z,100301.09
2022-12-12T15:26:55.337Z,100304.34
2022-12-12T15:29:44.754Z,100306.25
2022-12-12T15:32:35.701Z,100294.91
2022-12-12T15:35:25.573Z,100299.50
2022-12-12T15:38:15.477Z,100300.59
2022-12-12T15:41:13.361Z,100294.63
2022-12-12T15:44:05.340Z,100304.06
2022-12-12T15:46:54.981Z,100315.41
2022-12-12T15:49:47.505Z,100307.03
2022-12-12T15:52:36.959Z,100322.44
2022-12-12T15:55:26.489Z,100320.50
2022-12-12T15:58:29.142Z,100315.41
2022-12-12T16:01:22.486Z,100309.72
2022-12-12T16:04:26.281Z,100308.41
2022-12-12T16:07:24.160Z,100300.28
2022-12-12T16:10:24.225Z,100300.28
2022-12-12T16:13:26.567Z,100312.44
2022-12-12T16:16:43.669Z,100313.25
2022-12-12T16:19:47.147Z,100309.72
2022-12-12T16:22:41.730Z,100293.78
2022-12-12T16:25:32.615Z,100310.28
2022-12-12T16:28:25.903Z,100296.22
2022-12-12T16:31:19.190Z,100303.22
2022-12-12T16:34:08.308Z,100315.66
2022-12-12T16:36:57.657Z,100316.47
2022-12-12T16:39:48.444Z,100313.75
2022-12-12T16:42:38.525Z,100323.75
2022-12-12T16:45:29.354Z,100328.31
2022-12-12T16:48:21.572Z,100332.38
2022-12-12T16:51:18.113Z,100331.31
2022-12-12T16:54:07.599Z,100329.97
2022-12-12T16:56:58.580Z,100341.56
2022-12-12T16:59:47.920Z,100328.56
2022-12-12T17:02:37.315Z,100347.50
2022-12-12T17:05:28.916Z,100341.84
2022-12-12T17:08:18.758Z,100341.53
2022-12-12T17:11:09.424Z,100338.00
2022-12-12T17:14:01.409Z,100339.88
2022-12-12T17:16:51.173Z,100338.00
2022-12-12T17:19:40.716Z,100357.19
2022-12-12T17:22:30.562Z,100348.28
2022-12-12T17:25:21.540Z,100348.28
2022-12-12T17:28:14.794Z,100354.75
2022-12-12T17:31:10.361Z,100353.41
2022-12-12T17:33:59.881Z,100350.72
2022-12-12T17:36:49.193Z,100341.03
2022-12-12T17:39:38.771Z,100348.84
2022-12-12T17:42:31.180Z,100356.66
2022-12-12T17:45:20.660Z,100357.22
2022-12-12T17:48:11.270Z,100351.28
2022-12-12T17:51:02.805Z,100348.03
2022-12-12T17:53:53.580Z,100357.22
2022-12-12T17:56:42.804Z,100358.31
2022-12-12T17:59:32.176Z,100346.44
2022-12-12T18:02:21.536Z,100361.28
2022-12-12T18:05:12.295Z,100350.75
2022-12-12T18:08:01.696Z,100363.19
2022-12-12T18:10:51.342Z,100349.69
2022-12-12T18:13:42.636Z,100360.75
2022-12-12T18:16:34.487Z,100355.13
2022-12-12T18:19:27.358Z,100351.03
2022-12-12T18:22:18.082Z,100364.31
2022-12-12T18:25:08.819Z,100362.13
2022-12-12T18:27:58.930Z,100365.91
2022-12-12T18:30:50.572Z,100351.88
2022-12-12T18:33:40.255Z,100359.47
2022-12-12T18:36:32.328Z,100349.44
2022-12-12T18:39:24.860Z,100362.13
2022-12-12T18:42:14.461Z,100361.88
2022-12-12T18:45:04.142Z,100359.72
2022-12-12T18:47:55.177Z,100359.72
2022-12-12T18:50:44.546Z,100355.13
2022-12-12T18:53:34.428Z,100363.25
2022-12-12T18:56:29.820Z,100362.44
2022-12-12T18:59:19.391Z,100352.44
2022-12-12T19:02:14.752Z,100353.53
2022-12-12T19:05:04.668Z,100354.59
2022-12-12T19:07:54.158Z,100352.44
2022-12-12T19:10:46.521Z,100355.94
2022-12-12T19:13:38.264Z,100351.88
2022-12-12T19:16:27.680Z,100349.47
2022-12-12T19:19:17.220Z,100339.72
2022-12-12T19:22:24.722Z,100358.91
2022-12-12T19:25:17.317Z,100359.72
2022-12-12T19:28:06.751Z,100364.31
2022-12-12T19:30:59.075Z,100350.00
2022-12-12T19:33:49.264Z,100363.78
2022-12-12T19:36:41.589Z,100372.41
2022-12-12T19:39:31.048Z,100376.72
2022-12-12T19:42:20.628Z,100383.47
2022-12-12T19:45:11.653Z,100394.03
2022-12-12T19:48:02.730Z,100394.03
2022-12-12T19:50:52.187Z,100392.69
2022-12-12T19:53:43.819Z,100388.88
2022-12-12T19:56:36.281Z,100396.75
2022-12-12T19:59:25.676Z,100397.28
2022-12-12T20:02:15.649Z,100397.81
2022-12-12T20:05:07.200Z,100405.13
2022-12-12T20:07:57.799Z,100410.78
2022-12-12T20:10:47.362Z,100412.13
2022-12-12T20:13:37.363Z,100422.13
2022-12-12T20:16:29.463Z,100419.41
2022-12-12T20:19:19.913Z,100411.31
2022-12-12T20:22:10.583Z,100407.00
2022-12-12T20:25:00.141Z,100405.38
2022-12-12T20:27:49.465Z,100406.47
2022-12-12T20:30:38.813Z,100405.13
2022-12-12T20:33:28.519Z,100391.56
2022-12-12T20:36:21.681Z,100404.00
2022-12-12T20:39:16.694Z,100388.34
2022-12-12T20:42:06.665Z,100419.13
2022-12-12T20:44:56.088Z,100409.13
2022-12-12T20:47:45.413Z,100398.03
2022-12-12T20:50:34.819Z,100397.22
2022-12-12T20:53:24.157Z,100413.97
2022-12-12T20:56:18.023Z,100412.56
2022-12-12T20:59:07.788Z,100411.22
2022-12-12T21:01:57.647Z,100412.28
2022-12-12T21:04:47.202Z,100407.69
2022-12-12T21:07:36.621Z,100397.69
2022-12-12T21:10:26.093Z,100406.88
2022-12-12T21:13:16.926Z,100400.94
2022-12-12T21:16:10.907Z,100412.03
2022-12-12T21:19:04.900Z,100402.81
2022-12-12T21:21:54.584Z,100405.28
2022-12-12T21:24:44.594Z,100419.03
2022-12-12T21:27:34.525Z,100419.56
2022-12-12T21:30:25.369Z,100414.97
2022-12-12T21:33:14.759Z,100423.88
2022-12-12T21:36:06.406Z,100421.13
2022-12-12T21:38:57.716Z,100418.16
2022-12-12T21:41:47.186Z,100424.09
2022-12-12T21:44:38.972Z,100423.56
2022-12-12T21:47:33.315Z,100419.53
2022-12-12T21:50:27.484Z,100419.25
2022-12-12T21:53:35.064Z,100429.50
2022-12-12T21:56:24.370Z,100429.22
2022-12-12T21:59:14.925Z,100421.41
2022-12-12T22:02:06.689Z,100416.78
2022-12-12T22:04:57.714Z,100417.59
2022-12-12T22:07:47.061Z,100420.84
2022-12-12T22:10:38.934Z,100419.22
2022-12-12T22:13:28.393Z,100407.63
2022-12-12T22:16:20.941Z,100406.25
2022-12-12T22:19:13.212Z,100418.13
2022-12-12T22:22:04.074Z,100416.75
2022-12-12T22:24:54.223Z,100420.25
2022-12-12T22:27:43.509Z,100420.22
2022-12-12T22:30:33.168Z,100422.66
2022-12-12T22:33:22.544Z,100416.72
2022-12-12T22:36:12.891Z,100409.94
2022-12-12T22:39:04.969Z,100415.63
2022-12-12T22:41:55.094Z,100418.56
2022-12-12T22:44:44.836Z,100411.00
2022-12-12T22:47:34.403Z,100418.56
2022-12-12T22:50:23.743Z,100426.13
2022-12-12T22:53:13.501Z,100427.19
2022-12-12T22:56:05.229Z,100429.03
2022-12-12T22:58:54.690Z,100428.22
2022-12-12T23:01:44.727Z,100433.84
2022-12-12T23:04:34.196Z,100436.03
2022-12-12T23:07:23.594Z,100435.47
2022-12-12T23:10:13.522Z,100431.91
2022-12-12T23:13:04.432Z,100425.16
2022-12-12T23:15:53.731Z,100425.44
2022-12-12T23:18:43.392Z,100428.34
2022-12-12T23:21:34.441Z,100433.47
2022-12-12T23:24:23.866Z,100424.84
2022-12-12T23:27:13.166Z,100420.78
2022-12-12T23:30:04.308Z,100429.09
2022-12-12T23:32:53.738Z,100418.28
2022-12-12T23:35:49.057Z,100422.56
2022-12-12T23:38:38.784Z,100428.78
2022-12-12T23:41:29.132Z,100414.44
2022-12-12T23:44:20.787Z,100409.03
2022-12-12T23:47:11.440Z,100416.59
2022-12-12T23:50:01.673Z,100418.81
2022-12-12T23:52:50.959Z,100409.84
2022-12-12T23:55:40.498Z,100423.88
2022-12-12T23:58:29.936Z,100419.81
